Time;durP1;ratioP1;P1;durP2;ratioP2;P2;SDS_P1;SDS_P2;PMS_P1;PMS_P2;Temp;Humidity;BMP_temperature;BMP_pressure;BME280_temperature;BME280_humidity;BME280_pressure;Samples;Min_cycle;Max_cycle;Signal;HPM_P1;HPM_P2
2022/01/15 00:00:37;;;;;;;1.85;1.75;;;;;;;-2.43;100.00;100250.31;4918431;29;20039;-69
2022/01/15 00:03:05;;;;;;;2.58;2.45;;;;;;;-2.48;100.00;100242.44;4918493;29;20028;-68
2022/01/15 00:05:31;;;;;;;3.40;3.08;;;;;;;-2.58;100.00;100243.56;4918286;29;20103;-68
2022/01/15 00:07:57;;;;;;;2.50;2.40;;;;;;;-2.60;100.00;100249.38;4917362;29;20052;-69
2022/01/15 00:10:27;;;;;;;2.95;2.65;;;;;;;-2.67;100.00;100245.56;4917878;29;20031;-70
2022/01/15 00:12:56;;;;;;;1.77;1.67;;;;;;;-2.75;100.00;100245.94;4918242;29;20516;-70
2022/01/15 00:15:27;;;;;;;3.65;2.20;;;;;;;-2.76;100.00;100249.25;4918394;29;20036;-70
2022/01/15 00:17:59;;;;;;;2.90;2.42;;;;;;;-2.77;100.00;100242.44;4918225;29;20028;-70
2022/01/15 00:20:26;;;;;;;3.63;3.33;;;;;;;-2.72;100.00;100248.63;4918228;29;20024;-70
2022/01/15 00:22:53;;;;;;;1.65;1.65;;;;;;;-2.72;100.00;100238.50;4918034;29;20047;-70
2022/01/15 00:25:20;;;;;;;3.05;2.83;;;;;;;-2.74;100.00;100237.53;4917993;29;20033;-70
2022/01/15 00:27:46;;;;;;;1.35;1.33;;;;;;;-2.67;100.00;100230.34;4917870;29;20600;-70
2022/01/15 00:30:13;;;;;;;2.15;2.05;;;;;;;-2.66;100.00;100231.22;4917789;29;20035;-70
2022/01/15 00:32:38;;;;;;;2.72;1.65;;;;;;;-2.68;100.00;100232.81;4917793;29;20028;-70
2022/01/15 00:35:05;;;;;;;2.30;2.22;;;;;;;-2.68;100.00;100232.81;4917714;29;20035;-70
2022/01/15 00:37:31;;;;;;;1.42;1.40;;;;;;;-2.72;100.00;100225.81;4917673;29;20035;-70
2022/01/15 00:40:01;;;;;;;3.40;2.85;;;;;;;-2.78;100.00;100230.53;4917683;29;20042;-70
2022/01/15 00:42:28;;;;;;;1.10;1.10;;;;;;;-2.77;100.00;100227.22;4917903;29;20039;-70
2022/01/15 00:44:55;;;;;;;3.28;3.03;;;;;;;-2.72;100.00;100228.34;4917719;29;20517;-70
2022/01/15 00:47:21;;;;;;;1.95;1.75;;;;;;;-2.73;100.00;100219.00;4917600;29;20039;-70
2022/01/15 00:49:46;;;;;;;2.83;2.55;;;;;;;-2.75;100.00;100218.03;4917587;29;20390;-70
2022/01/15 00:52:11;;;;;;;3.38;2.72;;;;;;;-2.78;100.00;100220.38;4917539;29;20056;-70
2022/01/15 00:54:37;;;;;;;1.95;1.85;;;;;;;-2.70;100.00;100219.19;4917575;29;20024;-70
2022/01/15 00:57:03;;;;;;;3.53;3.28;;;;;;;-2.69;100.00;100215.84;4917428;29;20028;-70
2022/01/15 00:59:28;;;;;;;2.05;1.85;;;;;;;-2.67;100.00;100224.41;4917440;29;20042;-70
2022/01/15 08:00:50;;;;;;;3.33;3.08;;;;;;;-3.19;95.09;100070.19;5702233;23;20095;-71
2022/01/15 08:03:15;;;;;;;1.90;1.80;;;;;;;-3.08;96.65;100062.31;4918323;29;20040;-71
2022/01/15 08:05:40;;;;;;;2.08;1.98;;;;;;;-3.07;95.36;100064.94;4918520;29;20024;-71
2022/01/15 08:08:06;;;;;;;3.88;1.77;;;;;;;-3.01;94.89;100061.88;4918461;29;20024;-71
2022/01/15 08:10:31;;;;;;;1.30;1.27;;;;;;;-2.94;94.27;100057.22;4918451;29;20027;-71
2022/01/15 08:12:57;;;;;;;5.22;2.33;;;;;;;-2.94;94.39;100057.22;4918520;29;20032;-71
2022/01/15 08:15:22;;;;;;;1.60;1.50;;;;;;;-2.80;93.63;100052.94;4918717;29;20034;-75
2022/01/15 08:17:48;;;;;;;3.03;2.83;;;;;;;-2.10;91.95;100048.25;4932733;29;20091;-75
2022/01/15 08:20:14;;;;;;;4.05;3.25;;;;;;;-0.61;84.52;100039.59;4918083;29;20043;-75
2022/01/15 08:22:40;;;;;;;1.50;1.50;;;;;;;0.86;75.68;100032.41;4918322;29;20028;-75
2022/01/15 08:25:07;;;;;;;3.63;3.30;;;;;;;3.24;67.48;100020.59;4918205;29;20028;-75
2022/01/15 08:27:32;;;;;;;2.70;2.60;;;;;;;4.73;60.24;100020.53;4917979;29;20020;-76
2022/01/15 08:29:58;;;;;;;3.53;2.65;;;;;;;5.37;58.09;100016.97;4916945;29;20027;-76
2022/01/15 08:32:23;;;;;;;4.70;2.63;;;;;;;6.28;54.33;100014.59;4917823;29;20039;-76
2022/01/15 08:34:49;;;;;;;2.38;2.22;;;;;;;6.81;52.80;100014.72;4917833;29;20067;-76
2022/01/15 08:37:14;;;;;;;5.18;2.53;;;;;;;7.10;51.32;100004.88;4917783;29;20466;-76
2022/01/15 08:39:39;;;;;;;4.13;3.75;;;;;;;7.62;49.63;100008.22;4918004;29;20095;-76
2022/01/15 08:42:07;;;;;;;4.43;3.45;;;;;;;8.15;47.55;100012.34;4917792;29;20469;-76
2022/01/15 08:44:32;;;;;;;4.60;2.75;;;;;;;8.87;46.97;100021.72;4917946;29;20038;-76
2022/01/15 08:47:01;;;;;;;6.03;4.15;;;;;;;10.22;42.67;100004.44;4918038;29;20024;-76
2022/01/15 08:49:26;;;;;;;8.50;3.92;;;;;;;9.21;44.50;100015.13;4917850;29;20462;-76
2022/01/15 08:51:52;;;;;;;4.50;3.35;;;;;;;9.78;43.30;100011.16;4917698;29;20286;-76
2022/01/15 08:54:17;;;;;;;2.05;1.95;;;;;;;9.79;42.81;100012.03;4917622;29;20024;-76
2022/01/15 08:56:42;;;;;;;6.47;4.03;;;;;;;9.74;43.29;100016.31;4917437;29;20036;-76
2022/01/15 08:59:08;;;;;;;5.70;3.40;;;;;;;10.35;41.68;100006.25;4917623;29;20059;-76
2022/01/15 09:01:33;;;;;;;4.10;2.70;;;;;;;9.70;42.34;100006.81;4917237;29;20092;-76
2022/01/15 09:03:58;;;;;;;6.28;3.78;;;;;;;8.64;45.14;100018.06;4917495;29;20389;-76
2022/01/15 09:06:24;;;;;;;4.93;3.72;;;;;;;7.62;48.85;100008.22;4917275;29;20020;-76
2022/01/15 09:08:50;;;;;;;4.18;3.35;;;;;;;10.16;42.80;99999.25;4917522;29;20032;-76
2022/01/15 09:11:15;;;;;;;6.03;3.65;;;;;;;10.75;40.67;99990.75;4917366;29;20064;-76
2022/01/15 09:13:41;;;;;;;9.70;3.38;;;;;;;11.70;39.39;99985.44;4917329;29;20430;-76
2022/01/15 09:16:07;;;;;;;3.88;3.30;;;;;;;11.99;38.26;99983.66;4916946;29;20028;-76
2022/01/15 09:18:34;;;;;;;4.03;3.33;;;;;;;11.11;39.85;99983.84;4917197;29;20379;-76
2022/01/15 09:21:00;;;;;;;11.77;5.07;;;;;;;10.47;40.47;99990.72;4917113;29;20449;-76
2022/01/15 09:23:25;;;;;;;5.70;3.78;;;;;;;10.69;40.77;99995.94;4917076;29;20114;-76
2022/01/15 09:25:52;;;;;;;5.22;3.38;;;;;;;11.21;39.11;99980.38;4916922;29;20022;-76
2022/01/15 09:31:02;;;;;;;4.68;3.95;;;;;;;13.08;36.48;99976.00;4917113;29;20052;-77
2022/01/15 09:33:27;;;;;;;4.50;3.92;;;;;;;13.98;34.46;99976.81;4916589;29;20440;-77
2022/01/15 09:35:53;;;;;;;4.75;3.53;;;;;;;13.47;35.21;99973.91;4916658;29;20063;-76
2022/01/15 09:38:20;;;;;;;5.70;3.92;;;;;;;11.93;37.48;99988.88;4916704;29;20027;-76
2022/01/15 09:40:45;;;;;;;6.55;4.25;;;;;;;13.08;36.36;99989.00;4916480;29;20453;-77
2022/01/15 09:43:13;;;;;;;4.72;3.75;;;;;;;12.66;36.20;99991.94;4916578;29;20204;-77
2022/01/15 09:45:39;;;;;;;5.95;3.30;;;;;;;11.97;37.48;99990.59;4916851;29;20119;-77
2022/01/15 09:48:06;;;;;;;6.55;2.63;;;;;;;10.76;40.19;100002.84;4916480;29;20112;-77
2022/01/15 09:50:36;;;;;;;5.38;3.20;;;;;;;10.69;40.78;100006.31;4916532;29;20036;-77
2022/01/15 09:53:02;;;;;;;;;;;;;;;10.80;40.55;99999.41;4917057;29;20393;-77
2022/01/15 09:55:27;;;;;;;3.05;2.42;;;;;;;10.39;41.72;100002.78;4916433;29;20455;-76
2022/01/15 09:57:54;;;;;;;2.92;2.72;;;;;;;10.13;42.82;99999.22;4916489;29;20122;-76
2022/01/15 10:00:22;;;;;;;3.75;3.03;;;;;;;12.46;38.22;99995.53;4916424;29;20067;-76
2022/01/15 10:02:49;;;;;;;6.38;4.38;;;;;;;12.54;38.13;99988.56;4916669;29;20083;-76
2022/01/15 10:05:16;;;;;;;6.40;4.25;;;;;;;12.87;37.24;99986.59;4916331;29;20442;-76
2022/01/15 10:08:06;;;;;;;5.95;3.28;;;;;;;14.48;35.86;99972.69;4916204;29;20020;-76
2022/01/15 10:10:34;;;;;;;5.25;2.85;;;;;;;16.15;31.92;99973.19;4916346;29;20533;-77
2022/01/15 10:13:12;;;;;;;6.75;3.53;;;;;;;15.96;31.85;99971.84;4916389;29;20059;-76
2022/01/15 10:15:37;;;;;;;5.90;3.38;;;;;;;15.05;34.04;99970.06;4892682;29;20031;-76
2022/01/15 10:18:22;;;;;;;6.53;3.53;;;;;;;13.36;35.23;99978.38;4916233;29;20028;-74
2022/01/15 10:20:48;;;;;;;4.65;3.03;;;;;;;15.87;32.11;99957.22;4916082;29;20063;-76
2022/01/15 10:23:21;;;;;;;6.00;3.08;;;;;;;15.35;32.47;99958.19;4916296;29;20070;-76
2022/01/15 10:26:13;;;;;;;5.90;3.47;;;;;;;14.62;33.70;99969.88;4915899;29;20020;-76
2022/01/15 10:29:11;;;;;;;4.55;3.67;;;;;;;15.37;32.80;99959.00;4916114;29;20032;-75
2022/01/15 10:31:43;;;;;;;4.47;3.58;;;;;;;15.38;32.95;99952.06;4894070;29;20516;-76
2022/01/15 10:34:37;;;;;;;6.57;3.75;;;;;;;14.40;34.82;99957.09;4915604;29;20039;-76
2022/01/15 10:37:08;;;;;;;9.43;5.45;;;;;;;14.95;33.24;99942.38;4915597;29;20087;-75
2022/01/15 10:39:33;;;;;;;5.68;3.10;;;;;;;14.98;33.68;99947.53;4915779;29;20424;-75
2022/01/15 10:41:58;;;;;;;6.40;3.53;;;;;;;15.04;33.33;99938.75;4915765;29;20158;-76
2022/01/15 10:44:37;;;;;;;4.55;3.38;;;;;;;14.71;34.19;99937.56;4915841;29;20028;-75
2022/01/15 10:47:08;;;;;;;6.65;3.42;;;;;;;15.02;33.87;99923.09;4915684;29;20036;-75
2022/01/15 10:49:34;;;;;;;7.13;4.35;;;;;;;13.01;36.07;99930.13;4915814;29;20378;-75
2022/01/15 10:52:10;;;;;;;6.30;2.53;;;;;;;14.73;34.68;99920.13;4915057;29;20051;-75
2022/01/15 10:54:50;;;;;;;5.93;3.10;;;;;;;14.88;34.09;99919.88;4915894;29;20020;-75
2022/01/15 10:57:18;;;;;;;8.02;3.47;;;;;;;13.77;35.88;99930.16;4915512;29;20036;-75
2022/01/15 11:00:17;;;;;;;9.63;4.50;;;;;;;13.26;37.20;99916.88;4915695;29;20036;-75
2022/01/15 11:02:48;;;;;;;11.30;4.13;;;;;;;12.87;37.96;99921.56;4896964;29;20047;-74
2022/01/15 11:05:26;;;;;;;8.68;4.65;;;;;;;11.63;40.76;99914.53;4915729;29;20024;-74
2022/01/15 11:08:14;;;;;;;5.90;3.60;;;;;;;8.92;46.46;99923.56;4915845;29;20498;-74
2022/01/15 11:10:41;;;;;;;3.58;2.67;;;;;;;7.94;49.89;99922.63;4915465;29;20048;-74
2022/01/15 11:13:10;;;;;;;5.55;4.07;;;;;;;6.94;52.63;99913.59;4915737;29;20452;-74
2022/01/15 11:15:36;;;;;;;6.20;4.07;;;;;;;6.52;55.21;99913.78;4915401;29;20092;-74
2022/01/15 11:18:03;;;;;;;4.95;3.50;;;;;;;6.08;56.91;99905.28;4915356;29;20036;-74
2022/01/15 11:20:31;;;;;;;6.53;4.15;;;;;;;5.84;57.39;99903.09;4915439;29;20024;-75
2022/01/15 11:22:57;;;;;;;7.20;3.22;;;;;;;6.06;58.08;99907.00;4915394;29;20035;-74
2022/01/15 11:25:24;;;;;;;3.95;3.55;;;;;;;6.17;58.07;99905.47;4915353;29;20032;-74
2022/01/15 11:27:50;;;;;;;7.63;4.03;;;;;;;7.30;55.24;99902.09;4915273;29;20024;-74
2022/01/15 11:30:18;;;;;;;5.53;4.20;;;;;;;9.61;48.18;99890.31;4929971;29;20055;-74
2022/01/15 11:32:44;;;;;;;4.95;4.00;;;;;;;10.38;45.99;99879.28;4915167;29;20027;-74
2022/01/15 11:35:10;;;;;;;3.80;3.33;;;;;;;11.53;43.61;99869.56;4915185;29;20028;-74
2022/01/15 11:37:42;;;;;;;12.32;4.78;;;;;;;12.64;41.51;99863.69;4915025;29;20038;-74
2022/01/15 11:40:32;;;;;;;7.72;4.30;;;;;;;12.90;40.59;99861.69;4915737;29;20032;-74
2022/01/15 11:42:58;;;;;;;;;;;;;;;13.19;39.76;99857.91;4915708;29;20498;-74
2022/01/15 11:45:35;;;;;;;6.70;4.00;;;;;;;12.66;40.42;99861.94;4915443;29;19922;-74
2022/01/15 11:48:21;;;;;;;5.22;3.75;;;;;;;11.87;41.72;99869.44;4915242;29;20028;-74
2022/01/15 11:51:15;;;;;;;3.97;3.33;;;;;;;11.97;42.41;99858.13;4915312;29;20493;-74
2022/01/15 11:53:47;;;;;;;6.80;3.83;;;;;;;12.84;40.69;99846.16;4915089;29;20442;-74
2022/01/15 11:56:22;;;;;;;8.45;5.18;;;;;;;13.26;39.89;99844.00;4915093;29;20039;-74
2022/01/15 11:58:47;;;;;;;5.15;3.20;;;;;;;13.41;39.50;99833.41;4915005;29;20028;-74
2022/01/15 12:01:36;;;;;;;5.72;3.50;;;;;;;13.37;39.74;99831.72;4915045;29;20047;-74
2022/01/15 12:04:27;;;;;;;4.85;3.58;;;;;;;12.92;40.32;99831.34;4912595;29;20068;-74
2022/01/15 12:07:01;;;;;;;5.78;4.38;;;;;;;13.66;39.21;99822.66;4913011;29;20032;-74
2022/01/15 12:09:51;;;;;;;7.63;4.07;;;;;;;12.80;40.40;99823.66;4917452;29;20079;-74
2022/01/15 12:12:20;;;;;;;9.38;4.18;;;;;;;12.72;40.77;99820.28;4917897;29;20040;-74
2022/01/15 12:14:50;;;;;;;11.33;4.63;;;;;;;13.08;40.56;99816.41;4918338;29;20028;-74
2022/01/15 12:17:23;;;;;;;6.78;4.22;;;;;;;13.98;39.01;99803.97;4917971;29;20020;-74
2022/01/15 12:19:50;;;;;;;7.70;4.85;;;;;;;14.15;38.91;99800.19;4918169;29;20032;-74
2022/01/15 12:22:34;;;;;;;8.65;3.72;;;;;;;14.26;37.63;99793.94;4918220;29;20036;-74
2022/01/15 12:25:00;;;;;;;13.18;4.35;;;;;;;14.06;38.69;99795.13;4918292;29;20442;-74
2022/01/15 12:27:28;;;;;;;5.07;3.55;;;;;;;13.79;38.99;99790.38;4918080;29;20071;-74
2022/01/15 12:30:02;;;;;;;7.90;4.78;;;;;;;13.65;39.39;99790.56;4917931;29;20024;-74
2022/01/15 12:32:30;;;;;;;4.93;3.72;;;;;;;13.05;40.83;99782.63;4918000;29;20493;-74
2022/01/15 12:34:57;;;;;;;6.97;4.75;;;;;;;12.70;41.95;99781.28;4917828;29;20070;-74
2022/01/15 12:37:22;;;;;;;7.70;4.35;;;;;;;10.67;45.70;99790.31;4917748;29;20044;-74
2022/01/15 12:39:49;;;;;;;5.78;4.40;;;;;;;9.16;50.00;99793.56;4918030;29;20397;-74
2022/01/15 12:42:17;;;;;;;7.20;3.75;;;;;;;8.07;54.27;99790.25;4917709;29;20028;-74
2022/01/15 12:44:45;;;;;;;7.70;3.53;;;;;;;7.52;57.35;99799.22;4916667;29;20398;-74
2022/01/15 12:47:12;;;;;;;4.65;3.75;;;;;;;7.30;57.73;99792.94;4917636;29;20486;-74
2022/01/15 12:49:42;;;;;;;5.85;4.35;;;;;;;6.78;59.63;99788.00;4917849;29;20031;-74
2022/01/15 12:52:19;;;;;;;4.82;4.07;;;;;;;6.65;61.18;99791.25;4917776;29;20056;-74
2022/01/15 12:54:50;;;;;;;10.38;4.50;;;;;;;6.55;61.60;99790.25;4917687;29;20055;-74
2022/01/15 12:57:39;;;;;;;8.15;3.97;;;;;;;6.36;61.96;99783.97;4916169;29;20031;-74
2022/01/15 13:00:07;;;;;;;6.78;4.15;;;;;;;5.88;63.57;99779.72;4917810;29;20659;-74
2022/01/15 13:02:33;;;;;;;7.75;4.78;;;;;;;5.93;65.11;99772.13;4916127;29;20040;-74
2022/01/15 13:04:58;;;;;;;8.13;3.97;;;;;;;5.94;64.78;99768.72;4917304;29;20035;-74
2022/01/15 13:07:23;;;;;;;5.53;4.90;;;;;;;5.76;65.67;99764.13;4915855;29;20024;-74
2022/01/15 13:09:49;;;;;;;10.23;7.35;;;;;;;5.95;65.37;99760.19;4917452;29;20473;-74
2022/01/15 13:12:14;;;;;;;8.32;4.57;;;;;;;5.66;66.20;99762.22;4917249;29;20079;-73
2022/01/15 13:14:42;;;;;;;17.48;7.72;;;;;;;5.77;66.10;99760.69;4931909;29;20149;-74
2022/01/15 13:17:25;;;;;;;13.77;6.30;;;;;;;5.65;65.96;99745.03;4916789;29;20553;-74
2022/01/15 13:19:51;;;;;;;5.18;4.47;;;;;;;5.45;66.92;99761.81;4917059;29;20430;-74
2022/01/15 13:22:23;;;;;;;4.88;3.88;;;;;;;5.46;67.59;99750.69;4917063;29;20039;-73
2022/01/15 13:24:57;;;;;;;7.88;4.78;;;;;;;5.27;67.49;99747.81;4917136;29;20502;-74
2022/01/15 13:27:22;;;;;;;3.42;2.95;;;;;;;5.32;67.57;99751.34;4917121;29;20106;-74
2022/01/15 13:29:48;;;;;;;3.65;3.35;;;;;;;5.27;67.11;99744.34;4917184;29;20076;-73
2022/01/15 13:32:14;;;;;;;6.25;5.65;;;;;;;5.22;68.03;99739.16;4916857;29;20035;-74
2022/01/15 13:34:41;;;;;;;5.60;3.47;;;;;;;5.41;67.20;99746.38;4916683;29;20048;-74
2022/01/15 13:37:09;;;;;;;3.95;3.65;;;;;;;5.33;67.00;99736.78;4917015;29;20035;-74
2022/01/15 13:39:36;;;;;;;6.22;4.25;;;;;;;5.33;67.02;99731.66;4917045;29;20477;-74
2022/01/15 13:42:02;;;;;;;4.60;4.18;;;;;;;5.26;67.58;99725.50;4916799;29;20492;-74
2022/01/15 13:44:32;;;;;;;7.20;5.60;;;;;;;5.24;67.73;99736.59;4916761;29;20032;-74
2022/01/15 13:47:07;;;;;;;5.25;4.38;;;;;;;5.18;68.02;99734.78;4916536;29;20016;-74
2022/01/15 13:53:04;;;;;;;5.13;4.22;;;;;;;5.28;67.71;99738.41;4916852;29;20103;-74
2022/01/15 13:55:27;;;;;;;6.38;4.40;;;;;;;4.99;68.53;99731.00;4916680;29;20070;-74
2022/01/15 13:58:11;;;;;;;8.48;5.35;;;;;;;4.95;68.94;99733.47;4916485;29;20032;-74
2022/01/15 14:00:37;;;;;;;4.88;4.45;;;;;;;4.94;69.47;99736.88;4916459;29;20460;-73
2022/01/15 14:03:06;;;;;;;5.03;3.70;;;;;;;4.85;69.28;99735.84;4916186;29;20119;-74
2022/01/15 14:05:33;;;;;;;;;;;;;;;4.76;69.78;99733.09;4916573;29;20525;-74
2022/01/15 14:08:08;;;;;;;4.25;3.47;;;;;;;4.54;70.47;99730.91;4916236;29;20368;-71
2022/01/15 14:10:38;;;;;;;6.22;4.00;;;;;;;4.73;70.26;99732.16;4916292;29;20028;-76
2022/01/15 14:13:08;;;;;;;6.20;4.30;;;;;;;4.76;69.52;99730.53;4916338;29;20032;-77
2022/01/15 14:15:42;;;;;;;5.57;5.07;;;;;;;4.83;70.47;99728.94;4936640;23;20131;-67
2022/01/15 14:18:12;;;;;;;4.75;3.50;;;;;;;4.81;70.37;99731.47;4916201;29;20059;-68
2022/01/15 14:23:55;;;;;;;7.13;5.20;;;;;;;4.50;71.17;99726.56;4916373;29;20568;-67
2022/01/15 14:26:23;;;;;;;5.72;4.63;;;;;;;4.60;70.98;99720.78;4915539;29;20048;-68
2022/01/15 14:28:50;;;;;;;3.95;3.58;;;;;;;4.45;71.16;99716.19;4915259;29;20083;-67
2022/01/15 14:31:15;;;;;;;5.80;4.22;;;;;;;4.30;72.05;99720.97;4915097;29;20032;-67
2022/01/15 14:33:48;;;;;;;4.15;3.63;;;;;;;4.32;72.29;99709.91;4915822;29;20124;-69
2022/01/15 14:36:13;;;;;;;3.45;3.20;;;;;;;4.39;72.56;99716.91;4915805;29;20024;-69
2022/01/15 14:38:39;;;;;;;4.38;3.97;;;;;;;4.42;73.49;99720.38;4916079;29;20095;-69
2022/01/15 14:41:05;;;;;;;5.00;4.55;;;;;;;4.09;73.52;99724.78;4915928;29;20032;-72
2022/01/15 14:43:30;;;;;;;5.18;4.30;;;;;;;4.31;73.54;99718.47;4915067;29;20417;-67
2022/01/15 14:45:56;;;;;;;5.60;4.75;;;;;;;4.07;74.35;99723.03;4915716;29;20486;-67
2022/01/15 14:48:25;;;;;;;8.40;6.22;;;;;;;3.88;75.27;99726.00;4915251;29;20044;-67
2022/01/15 14:50:50;;;;;;;7.50;4.13;;;;;;;3.73;75.48;99734.19;4915776;29;20512;-67
2022/01/15 14:53:16;;;;;;;6.43;4.28;;;;;;;3.45;77.01;99730.03;4915931;29;20032;-67
2022/01/15 14:55:41;;;;;;;5.35;4.85;;;;;;;3.17;78.35;99729.31;4915613;29;20594;-66
2022/01/15 14:58:06;;;;;;;5.15;4.57;;;;;;;3.02;79.07;99728.91;4914461;29;20103;-66
2022/01/15 15:00:32;;;;;;;4.68;4.28;;;;;;;3.07;79.72;99723.06;4915892;29;20040;-67
2022/01/15 15:02:57;;;;;;;3.80;3.60;;;;;;;3.03;80.27;99722.94;4915604;29;20478;-67
2022/01/15 15:05:23;;;;;;;5.13;3.47;;;;;;;3.03;80.60;99725.50;4915719;29;20038;-68
2022/01/15 15:07:48;;;;;;;3.45;3.20;;;;;;;3.01;80.67;99722.91;4915539;29;20032;-67
2022/01/15 15:10:14;;;;;;;5.47;4.97;;;;;;;3.01;80.06;99730.59;4915734;29;20034;-71
2022/01/15 15:12:49;;;;;;;4.15;3.85;;;;;;;2.95;80.37;99721.84;4914868;29;20032;-67
2022/01/15 15:15:15;;;;;;;9.52;5.65;;;;;;;2.63;81.93;99718.41;4915307;29;20044;-68
2022/01/15 15:17:41;;;;;;;4.90;4.45;;;;;;;2.35;83.42;99726.94;4915386;29;20027;-67
2022/01/15 15:20:08;;;;;;;7.50;3.80;;;;;;;2.33;84.14;99726.06;4915664;29;20047;-68
2022/01/15 15:22:33;;;;;;;6.35;4.47;;;;;;;2.24;84.41;99724.94;4915571;29;20115;-69
2022/01/15 15:25:00;;;;;;;6.35;4.43;;;;;;;2.23;84.61;99728.31;4915489;29;20111;-68
2022/01/15 15:27:26;;;;;;;4.93;4.13;;;;;;;2.14;85.07;99722.06;4915470;29;20024;-69
2022/01/15 15:29:51;;;;;;;5.18;4.72;;;;;;;2.00;85.89;99719.06;4915527;29;20038;-70
2022/01/15 15:32:17;;;;;;;7.30;6.32;;;;;;;1.93;86.53;99722.25;4914707;29;20042;-69
2022/01/15 15:34:42;;;;;;;8.50;7.80;;;;;;;1.68;87.56;99721.47;4915233;29;20032;-72
2022/01/15 15:37:08;;;;;;;6.47;4.88;;;;;;;1.66;88.13;99730.78;4915398;29;20035;-70
2022/01/15 15:39:33;;;;;;;4.88;4.43;;;;;;;1.52;88.43;99734.56;4916473;29;20032;-69
2022/01/15 15:41:59;;;;;;;6.75;5.68;;;;;;;1.33;89.57;99732.19;4918964;29;20032;-70
2022/01/15 15:44:25;;;;;;;9.65;4.65;;;;;;;1.34;90.02;99728.81;4918898;29;20039;-69
2022/01/15 15:46:50;;;;;;;5.72;3.85;;;;;;;1.23;90.53;99720.81;4918755;29;20099;-72
2022/01/15 15:49:16;;;;;;;6.05;4.20;;;;;;;1.22;90.75;99725.03;4918001;29;21698;-68
2022/01/15 15:51:41;;;;;;;3.53;3.33;;;;;;;1.10;91.16;99718.63;4918670;29;20036;-68
2022/01/15 15:54:06;;;;;;;4.40;4.10;;;;;;;1.05;92.32;99725.25;4918569;29;20032;-70
2022/01/15 15:56:32;;;;;;;4.20;3.83;;;;;;;0.91;92.19;99724.75;4917677;29;20028;-68
2022/01/15 15:58:58;;;;;;;3.65;3.38;;;;;;;0.99;93.01;99725.91;4918418;29;20072;-68
2022/01/15 16:01:23;;;;;;;3.97;3.75;;;;;;;0.87;92.65;99730.56;4918580;29;20485;-68
2022/01/15 16:03:50;;;;;;;4.90;4.38;;;;;;;0.77;93.23;99730.25;4917499;29;20035;-68
2022/01/15 16:06:19;;;;;;;8.18;4.22;;;;;;;0.73;93.91;99738.63;4918027;29;20034;-68
2022/01/15 16:08:45;;;;;;;;;;;;;;;0.93;94.32;99736.78;4918864;29;20493;-68
2022/01/15 16:11:11;;;;;;;2.90;2.70;;;;;;;0.77;94.16;99744.66;4917433;29;19939;-67
2022/01/15 16:13:36;;;;;;;3.95;3.40;;;;;;;0.52;94.80;99745.44;4918235;29;20392;-68
2022/01/15 16:16:03;;;;;;;3.80;3.60;;;;;;;0.40;94.99;99747.56;4918162;29;20466;-68
2022/01/15 16:18:28;;;;;;;3.38;2.97;;;;;;;0.46;95.34;99747.78;4918671;29;20457;-68
2022/01/15 16:20:54;;;;;;;3.20;3.00;;;;;;;0.28;95.38;99752.16;4918427;29;20023;-69
2022/01/15 16:23:19;;;;;;;4.72;4.32;;;;;;;0.16;96.51;99753.44;4918321;29;20119;-68
2022/01/15 16:25:45;;;;;;;3.90;3.42;;;;;;;0.15;96.54;99750.84;4918041;29;20044;-69
2022/01/15 16:28:11;;;;;;;2.97;2.80;;;;;;;0.16;96.95;99743.25;4918366;29;20055;-70
2022/01/15 16:30:37;;;;;;;6.13;5.47;;;;;;;-0.02;96.70;99747.63;4918149;29;20024;-69
2022/01/15 16:33:02;;;;;;;3.90;3.03;;;;;;;-0.03;96.72;99745.88;4917997;29;20028;-68
2022/01/15 16:35:27;;;;;;;9.20;4.50;;;;;;;-0.05;96.26;99747.47;4917927;29;20027;-68
2022/01/15 16:37:53;;;;;;;5.07;3.70;;;;;;;-0.04;96.14;99744.16;4917929;29;20024;-68
2022/01/15 16:40:18;;;;;;;5.75;3.75;;;;;;;-0.10;96.38;99741.34;4917968;29;20028;-68
2022/01/15 16:42:44;;;;;;;4.38;4.00;;;;;;;-0.08;96.38;99747.38;4918049;29;20039;-69
2022/01/15 16:45:12;;;;;;;4.65;4.28;;;;;;;-0.06;96.86;99755.94;4917813;29;20485;-68
2022/01/15 16:47:38;;;;;;;10.25;7.10;;;;;;;-0.13;98.05;99749.75;4917591;29;20031;-69
2022/01/15 16:50:09;;;;;;;8.85;6.53;;;;;;;-0.14;97.98;99736.97;4917153;29;20024;-69
2022/01/15 16:52:44;;;;;;;7.47;5.03;;;;;;;-0.15;98.83;99730.09;4917742;29;20023;-69
2022/01/15 16:55:13;;;;;;;11.13;7.28;;;;;;;-0.26;97.77;99737.31;4917862;29;20035;-69
2022/01/15 16:57:39;;;;;;;14.80;6.22;;;;;;;-0.23;98.06;99736.59;4917462;29;20099;-69
2022/01/15 17:00:06;;;;;;;7.47;4.95;;;;;;;-0.27;97.98;99735.59;4917618;29;20036;-69
2022/01/15 17:02:32;;;;;;;4.28;3.97;;;;;;;-0.30;98.16;99743.94;4917438;29;20028;-69
2022/01/15 17:04:57;;;;;;;7.53;5.03;;;;;;;-0.30;97.36;99746.50;4917326;29;20088;-69
2022/01/15 17:07:23;;;;;;;6.68;4.05;;;;;;;-0.55;97.72;99748.84;4917402;29;20028;-68
2022/01/15 17:09:48;;;;;;;5.53;5.07;;;;;;;-0.58;97.54;99748.69;4917467;29;20032;-69
2022/01/15 17:12:13;;;;;;;7.43;6.75;;;;;;;-0.69;98.44;99749.94;4917291;29;20032;-69
2022/01/15 17:14:38;;;;;;;6.65;5.53;;;;;;;-0.73;98.66;99743.84;4917280;29;20091;-69
2022/01/15 17:17:04;;;;;;;4.97;4.47;;;;;;;-0.68;98.15;99751.66;4917089;29;20067;-69
2022/01/15 17:19:29;;;;;;;11.63;8.25;;;;;;;-0.81;98.13;99746.06;4917316;29;20087;-68
2022/01/15 17:21:55;;;;;;;7.88;7.18;;;;;;;-0.78;98.50;99743.66;4917459;29;20043;-69
2022/01/15 17:24:20;;;;;;;11.43;5.25;;;;;;;-0.75;98.76;99742.91;4917151;29;20485;-70
2022/01/15 17:26:46;;;;;;;7.07;6.45;;;;;;;-0.70;99.04;99743.13;4917087;29;20031;-70
2022/01/15 17:29:11;;;;;;;9.05;4.43;;;;;;;-0.66;99.46;99733.13;4917002;29;20031;-69
2022/01/15 17:31:36;;;;;;;5.05;4.63;;;;;;;-0.51;100.00;99735.44;4917103;29;20132;-70
2022/01/15 17:34:02;;;;;;;5.75;4.60;;;;;;;-0.50;100.00;99727.00;4916701;29;20529;-70
2022/01/15 17:36:27;;;;;;;7.95;5.05;;;;;;;-0.39;100.00;99730.84;4916735;29;20028;-69
2022/01/15 17:38:54;;;;;;;2.83;2.72;;;;;;;-0.48;100.00;99725.41;4916953;29;20125;-69
2022/01/15 17:41:21;;;;;;;5.20;3.40;;;;;;;-0.49;100.00;99723.63;4916664;29;20073;-70
2022/01/15 17:43:47;;;;;;;4.63;4.22;;;;;;;-0.46;100.00;99723.78;4916826;29;20040;-69
2022/01/15 17:46:13;;;;;;;5.30;3.05;;;;;;;-0.46;100.00;99720.38;4916715;29;20542;-69
2022/01/15 17:48:40;;;;;;;2.20;1.77;;;;;;;-0.35;100.00;99717.44;4916770;29;20137;-69
2022/01/15 17:51:05;;;;;;;5.60;3.70;;;;;;;-0.20;100.00;99711.22;4916757;29;20067;-69
2022/01/15 17:53:31;;;;;;;2.20;2.10;;;;;;;-0.10;100.00;99713.31;4916626;29;20119;-69
2022/01/15 17:55:57;;;;;;;3.95;3.17;;;;;;;-0.01;100.00;99708.59;4916508;29;20028;-69
2022/01/15 17:58:22;;;;;;;5.15;3.15;;;;;;;0.01;100.00;99707.00;4916692;29;20040;-71
2022/01/15 18:00:48;;;;;;;6.95;2.25;;;;;;;0.04;100.00;99702.00;4916501;29;20508;-70
2022/01/15 18:03:13;;;;;;;7.30;2.63;;;;;;;0.06;100.00;99710.59;4916064;29;20031;-69
2022/01/15 18:05:39;;;;;;;2.72;2.58;;;;;;;0.13;100.00;99716.78;4916321;29;20406;-69
2022/01/15 18:08:05;;;;;;;1.30;1.27;;;;;;;0.16;100.00;99707.56;4916536;29;20020;-69
2022/01/15 18:10:31;;;;;;;3.38;3.05;;;;;;;0.21;100.00;99710.31;4916320;29;20028;-69
2022/01/15 18:12:57;;;;;;;13.10;2.42;;;;;;;0.24;100.00;99701.09;4916410;29;20546;-69
2022/01/15 18:15:23;;;;;;;3.63;2.63;;;;;;;0.31;99.67;99706.41;4916162;29;20031;-69
2022/01/15 18:17:48;;;;;;;3.70;3.40;;;;;;;0.31;99.67;99702.19;4916088;29;20032;-69
2022/01/15 18:20:14;;;;;;;3.60;3.30;;;;;;;0.31;99.61;99696.22;4916309;29;20034;-70
2022/01/15 18:22:40;;;;;;;6.55;2.95;;;;;;;0.29;99.76;99690.19;4916327;29;20032;-70
2022/01/15 18:25:06;;;;;;;3.03;2.67;;;;;;;0.34;99.52;99686.13;4916145;29;20539;-71
2022/01/15 18:27:32;;;;;;;2.60;2.42;;;;;;;0.30;99.73;99681.75;4916042;29;20024;-71
2022/01/15 18:29:58;;;;;;;2.10;1.90;;;;;;;0.34;99.70;99681.03;4916116;29;20397;-70
2022/01/15 18:32:24;;;;;;;3.17;2.88;;;;;;;0.34;99.54;99681.03;4930634;29;20051;-68
2022/01/15 18:34:52;;;;;;;2.60;2.40;;;;;;;0.35;99.46;99682.78;4916029;29;20028;-69
2022/01/15 18:37:19;;;;;;;11.75;4.85;;;;;;;0.43;99.22;99682.22;4915935;29;20020;-69
2022/01/15 18:39:44;;;;;;;3.13;2.83;;;;;;;0.37;99.07;99681.16;4915933;29;20025;-69
2022/01/15 18:42:09;;;;;;;3.78;3.45;;;;;;;0.37;99.15;99676.06;4915741;29;20090;-70
2022/01/15 18:44:35;;;;;;;1.50;1.45;;;;;;;0.53;99.16;99675.78;4915937;29;20035;-70
2022/01/15 18:47:00;;;;;;;3.20;3.00;;;;;;;0.70;98.51;99676.41;4915770;29;20027;-69